Portada
METAR-TAF:

METAR-TAF

Aeropuertos :

Aeropuerto de Madrid-Barajas

Madrid, España

latitud: 40-27N, longitud: 003-33W, altitud: 609 m

Observación

El informe se hizo hace 35 minutos, a las 18:00 UTC
Viento 5 kt del noreste, variando entre noroeste y este-sureste
Temperatura 28°C
Humedad 25%
Presión 1020 hPa
Visibilidad 10 km o más
sin nubes por debajo de 1500 m y sin presencia de cumulonimbus.

METAR: LEMD 261800Z 04005KT 310V120 CAVOK 28/06 Q1020 NOSIG

Hora: 20:35 (18:35 UTC)

Pronóstico

El informe se hizo hace 1 hora y 35 minutos, a las 17:00 UTC
Pronóstico válido del 26 a las 18 UTC al 27 a las 24 UTC
Viento 8 kt del este-noreste
Visibilidad 10 km o más
sin nubes por debajo de 1500 m y sin presencia de cumulonimbus.

TAF: LEMD 261700Z 2618/2724 06008KT CAVOK TX33/2715Z TN13/2705Z

Observaciones y pronósticos meteorológicos de más de 4000 aeropuertos (mensajes METAR y TAF).

Los puntos amarillos y rojos representan las estaciones disponibles.

Ponga el ratón en el punto deseado para ver el nombre de la estación.

Haga clic para ver las observaciones y los pronósticos meteorológicos.

Para cambiar el mapa : haga clic en los botones verdes con una cruz de color negro para hacer un zoom, en el botón verde con un guión para alejar o en las flechas verdes para mapas adyacentes.


METAR-TAF: